Time;durP1;ratioP1;P1;durP2;ratioP2;P2;SDS_P1;SDS_P2;PMS_P1;PMS_P2;Temp;Humidity;BMP_temperature;BMP_pressure;BME280_temperature;BME280_humidity;BME280_pressure;Samples;Min_cycle;Max_cycle;Signal;HPM_P1;HPM_P2
2022/08/19 00:00:08;;;;;;;1031.47;942.80;;;23.30;99.90;;;;;;5049140;28;20672;-80
2022/08/19 00:02:35;;;;;;;1036.13;947.22;;;23.30;99.90;;;;;;5051751;28;20207;-78
2022/08/19 00:05:02;;;;;;;1026.47;937.85;;;23.30;99.90;;;;;;5035848;28;20196;-78
2022/08/19 00:07:28;;;;;;;1025.22;936.90;;;23.20;99.90;;;;;;5051988;28;20201;-78
2022/08/19 00:09:55;;;;;;;1042.63;953.47;;;23.20;99.90;;;;;;5044914;28;20520;-79
2022/08/19 00:12:22;;;;;;;1043.28;953.90;;;23.20;99.90;;;;;;5050886;28;20195;-79
2022/08/19 00:14:50;;;;;;;1039.45;950.17;;;23.20;99.90;;;;;;5040401;28;20231;-79
2022/08/19 00:17:17;;;;;;;1029.93;941.15;;;23.20;99.90;;;;;;5045838;28;20233;-78
2022/08/19 00:19:44;;;;;;;1039.78;950.70;;;23.20;99.90;;;;;;5045916;28;20228;-79
2022/08/19 00:22:11;;;;;;;1036.57;947.63;;;23.20;99.90;;;;;;5047898;28;20206;-79
2022/08/19 00:24:38;;;;;;;1034.85;945.80;;;23.10;99.90;;;;;;5049376;28;20199;-78
2022/08/19 00:27:05;;;;;;;1041.05;951.92;;;23.10;99.90;;;;;;5051583;28;20260;-78
2022/08/19 00:29:32;;;;;;;1025.70;937.33;;;23.10;99.90;;;;;;5048228;28;20194;-79
2022/08/19 00:32:00;;;;;;;1025.13;936.60;;;23.10;99.90;;;;;;5049098;28;20202;-79
2022/08/19 00:34:28;;;;;;;1024.28;935.70;;;23.10;99.90;;;;;;5045614;28;20704;-80
2022/08/19 00:36:55;;;;;;;1024.45;936.03;;;23.10;99.90;;;;;;5033891;28;20861;-80
2022/08/19 00:39:22;;;;;;;1025.10;936.55;;;23.10;99.90;;;;;;5032566;28;20202;-79
2022/08/19 00:41:51;;;;;;;1023.75;935.22;;;23.10;99.90;;;;;;5046763;28;20210;-79
2022/08/19 00:44:20;;;;;;;1035.82;946.85;;;23.00;99.90;;;;;;5038999;28;20670;-80
2022/08/19 00:46:49;;;;;;;1032.70;943.72;;;23.00;99.90;;;;;;5044026;28;20222;-79
2022/08/19 00:49:20;;;;;;;1023.28;934.45;;;23.00;99.90;;;;;;5045949;28;20647;-79
2022/08/19 00:51:52;;;;;;;1029.78;941.15;;;23.00;99.90;;;;;;5034804;28;20195;-79
2022/08/19 00:54:21;;;;;;;1028.13;939.42;;;23.00;99.90;;;;;;5043966;28;20727;-79
2022/08/19 00:56:49;;;;;;;1028.72;940.00;;;23.00;99.90;;;;;;5048101;28;20646;-79
2022/08/19 00:59:18;;;;;;;1017.15;928.85;;;22.90;99.90;;;;;;5055156;28;20200;-80
2022/08/19 01:01:46;;;;;;;1030.82;941.67;;;22.90;99.90;;;;;;5045076;28;20583;-79
2022/08/19 01:04:13;;;;;;;1015.22;927.20;;;22.90;99.90;;;;;;5048208;28;20673;-79
2022/08/19 01:06:42;;;;;;;1022.17;933.65;;;22.90;99.90;;;;;;5045689;28;20408;-80
2022/08/19 01:09:11;;;;;;;1023.67;935.20;;;22.90;99.90;;;;;;5048664;28;20199;-79
2022/08/19 01:11:42;;;;;;;1014.35;926.10;;;22.90;99.90;;;;;;5050173;28;20228;-80
2022/08/19 01:14:11;;;;;;;1008.40;920.47;;;22.90;99.90;;;;;;5040339;28;20219;-79
2022/08/19 01:16:39;;;;;;;1014.17;925.95;;;22.90;99.90;;;;;;5044488;28;20653;-79
2022/08/19 01:19:14;;;;;;;1020.88;932.30;;;22.80;99.90;;;;;;5047165;28;20214;-79
2022/08/19 01:21:50;;;;;;;1013.78;925.35;;;22.80;99.90;;;;;;5046468;28;20577;-80
2022/08/19 01:24:18;;;;;;;1021.60;933.03;;;22.80;99.90;;;;;;5049071;28;20205;-79
2022/08/19 01:26:47;;;;;;;1020.15;931.90;;;22.80;99.90;;;;;;5046871;28;20203;-80
2022/08/19 01:29:14;;;;;;;1016.75;928.63;;;22.70;99.90;;;;;;5046260;28;20191;-80
2022/08/19 01:31:41;;;;;;;1017.45;929.17;;;22.80;99.90;;;;;;5044308;28;20203;-80
2022/08/19 01:34:08;;;;;;;1029.18;940.17;;;22.80;99.90;;;;;;5047924;28;20202;-80
2022/08/19 01:36:39;;;;;;;1016.15;927.78;;;22.70;99.90;;;;;;5034796;28;20195;-80
2022/08/19 01:39:10;;;;;;;1004.83;916.80;;;22.70;99.90;;;;;;5049140;28;20199;-80
2022/08/19 01:41:39;;;;;;;1024.72;935.95;;;22.70;99.90;;;;;;5050643;28;20684;-80
2022/08/19 01:44:07;;;;;;;1016.55;928.13;;;22.70;99.90;;;;;;5052275;28;20578;-80
2022/08/19 01:46:35;;;;;;;1019.97;931.50;;;22.70;99.90;;;;;;5050588;28;20573;-80
2022/08/19 01:49:04;;;;;;;1008.25;919.97;;;22.70;99.90;;;;;;5053270;28;20202;-80
2022/08/19 01:51:31;;;;;;;1007.92;919.83;;;22.70;99.90;;;;;;5046763;28;20244;-80
2022/08/19 01:53:58;;;;;;;1007.30;919.33;;;22.60;99.90;;;;;;5049786;28;20241;-79
2022/08/19 01:56:25;;;;;;;1025.40;936.65;;;22.60;99.90;;;;;;5047421;28;21004;-79
2022/08/19 01:58:56;;;;;;;1005.83;917.75;;;22.60;99.90;;;;;;5048302;28;20650;-79
2022/08/19 02:01:23;;;;;;;999.70;912.05;;;22.60;99.90;;;;;;5048590;28;20200;-79
2022/08/19 02:03:51;;;;;;;1002.03;913.97;;;22.60;99.90;;;;;;5055817;28;20191;-79
2022/08/19 02:06:18;;;;;;;1012.90;924.67;;;22.60;99.90;;;;;;5043105;28;20194;-80
2022/08/19 02:08:47;;;;;;;1003.47;915.28;;;22.60;99.90;;;;;;5043490;28;20191;-79
2022/08/19 02:11:21;;;;;;;1012.03;923.30;;;22.50;99.90;;;;;;5054073;28;20195;-79
2022/08/19 02:13:49;;;;;;;1010.28;921.85;;;22.50;99.90;;;;;;5038324;28;20618;-79
2022/08/19 02:16:18;;;;;;;1014.85;926.53;;;22.50;99.90;;;;;;5040014;28;20633;-79
2022/08/19 02:18:44;;;;;;;1009.75;921.42;;;22.50;99.90;;;;;;5046710;28;20223;-77
2022/08/19 02:21:12;;;;;;;1003.60;915.58;;;22.50;99.90;;;;;;5046149;28;20203;-78
2022/08/19 02:23:39;;;;;;;1011.33;923.08;;;22.50;99.90;;;;;;5051939;28;20280;-77
2022/08/19 02:26:06;;;;;;;1009.25;920.95;;;22.50;99.90;;;;;;5048398;28;20696;-79
2022/08/19 02:28:33;;;;;;;1007.45;919.25;;;22.50;99.90;;;;;;5047987;28;20210;-79
2022/08/19 02:31:02;;;;;;;998.58;910.60;;;22.40;99.90;;;;;;5045763;28;20196;-79
2022/08/19 02:33:30;;;;;;;1009.53;921.30;;;22.40;99.90;;;;;;5041128;28;20211;-79
2022/08/19 02:35:57;;;;;;;1011.28;922.97;;;22.40;99.90;;;;;;5039294;28;20218;-80
2022/08/19 02:38:27;;;;;;;1018.22;929.58;;;22.40;99.90;;;;;;5049884;28;20201;-79
2022/08/19 02:40:55;;;;;;;1012.83;924.35;;;22.40;99.90;;;;;;5049613;28;20195;-80
2022/08/19 02:43:23;;;;;;;1012.90;924.33;;;22.40;99.90;;;;;;5040031;28;20210;-80
2022/08/19 02:45:51;;;;;;;999.47;911.42;;;22.40;99.90;;;;;;5044306;28;20646;-79
2022/08/19 02:48:18;;;;;;;992.63;905.17;;;22.40;99.90;;;;;;5050145;28;20191;-79
2022/08/19 02:50:51;;;;;;;995.35;907.63;;;22.30;99.90;;;;;;5044101;28;20214;-79
2022/08/19 02:53:18;;;;;;;1007.72;919.53;;;22.30;99.90;;;;;;5050890;28;20278;-79
2022/08/19 02:55:46;;;;;;;995.28;907.63;;;22.30;99.90;;;;;;5049778;28;20226;-80
2022/08/19 02:58:14;;;;;;;1006.75;918.53;;;22.30;99.90;;;;;;5042197;28;20298;-80
2022/08/19 03:00:45;;;;;;;1007.15;919.17;;;22.30;99.90;;;;;;5044843;28;20200;-80
2022/08/19 03:03:12;;;;;;;996.15;908.38;;;22.30;99.90;;;;;;5051453;28;20198;-80
2022/08/19 03:05:39;;;;;;;1007.78;919.75;;;22.30;99.90;;;;;;5042652;28;20192;-80
2022/08/19 03:08:10;;;;;;;1003.22;915.10;;;22.20;99.90;;;;;;5050976;28;20195;-81
2022/08/19 03:10:41;;;;;;;1000.05;912.22;;;22.20;99.90;;;;;;5050140;28;20195;-80
2022/08/19 03:13:08;;;;;;;996.92;909.03;;;22.20;99.90;;;;;;5033224;28;20208;-81
2022/08/19 03:15:35;;;;;;;1005.70;917.63;;;22.20;99.90;;;;;;5034403;28;21855;-80
2022/08/19 03:18:02;;;;;;;989.72;902.08;;;22.20;99.90;;;;;;5048427;28;20978;-80
2022/08/19 03:20:28;;;;;;;992.85;904.83;;;22.20;99.90;;;;;;5041345;28;20222;-81
2022/08/19 03:22:55;;;;;;;992.38;904.60;;;22.20;99.90;;;;;;5052851;28;20195;-81
2022/08/19 03:25:23;;;;;;;988.15;900.55;;;22.20;99.90;;;;;;5048631;28;20196;-80
2022/08/19 03:27:50;;;;;;;1002.30;914.30;;;22.20;99.90;;;;;;5036850;28;20210;-80
2022/08/19 03:30:17;;;;;;;1004.50;916.03;;;22.10;99.90;;;;;;5043289;28;20226;-79
2022/08/19 03:32:44;;;;;;;997.88;909.78;;;22.10;99.90;;;;;;5049256;28;20195;-80
2022/08/19 03:35:10;;;;;;;996.95;908.95;;;22.10;99.90;;;;;;5038669;28;20240;-80
2022/08/19 03:37:37;;;;;;;990.67;902.85;;;22.10;99.90;;;;;;5046677;28;20198;-80
2022/08/19 03:40:05;;;;;;;992.95;905.25;;;22.10;99.90;;;;;;5044872;28;20195;-80
2022/08/19 03:42:33;;;;;;;987.03;899.33;;;22.10;99.90;;;;;;5052407;28;20570;-80
2022/08/19 03:44:59;;;;;;;999.42;911.45;;;22.10;99.90;;;;;;5040377;28;20192;-80
2022/08/19 03:47:26;;;;;;;997.17;909.22;;;22.10;99.90;;;;;;5044370;28;20199;-80
2022/08/19 03:49:53;;;;;;;995.15;907.13;;;22.00;99.90;;;;;;5040079;28;20199;-80
2022/08/19 03:52:20;;;;;;;986.42;898.85;;;22.00;99.90;;;;;;5047378;28;20214;-80
2022/08/19 03:54:46;;;;;;;981.15;893.55;;;22.00;99.90;;;;;;5043974;28;20206;-81
2022/08/19 03:57:13;;;;;;;987.20;899.85;;;22.00;99.90;;;;;;5037016;28;20202;-80
2022/08/19 03:59:41;;;;;;;993.20;905.42;;;22.00;99.90;;;;;;5043283;28;20662;-80
2022/08/19 04:02:11;;;;;;;993.55;905.70;;;22.00;99.90;;;;;;5048276;28;20211;-80
2022/08/19 04:04:39;;;;;;;988.75;900.95;;;22.00;99.90;;;;;;5039816;28;20251;-80
2022/08/19 04:07:06;;;;;;;992.97;905.22;;;22.00;99.90;;;;;;5050874;28;20201;-81
2022/08/19 04:09:36;;;;;;;1001.60;912.92;;;21.90;99.90;;;;;;5050974;28;20203;-80
2022/08/19 04:12:05;;;;;;;993.67;905.95;;;21.90;99.90;;;;;;5033461;28;20246;-81
2022/08/19 04:14:33;;;;;;;979.78;892.30;;;21.90;99.90;;;;;;5046420;28;20564;-80
2022/08/19 04:17:03;;;;;;;985.60;897.78;;;21.90;99.90;;;;;;5053365;28;20218;-81
2022/08/19 04:19:30;;;;;;;981.47;894.22;;;21.90;99.90;;;;;;5047171;28;20272;-80
2022/08/19 04:21:58;;;;;;;1000.42;912.45;;;21.90;99.90;;;;;;5046040;28;20558;-79
2022/08/19 04:24:24;;;;;;;981.72;894.05;;;21.90;99.90;;;;;;5039269;28;20203;-79
2022/08/19 04:26:52;;;;;;;982.80;895.03;;;21.90;99.90;;;;;;5043570;28;20191;-80
2022/08/19 04:29:21;;;;;;;972.30;884.97;;;21.90;99.90;;;;;;5043909;28;20195;-80
2022/08/19 04:31:48;;;;;;;985.90;898.28;;;21.80;99.90;;;;;;5039628;28;20239;-80
2022/08/19 04:34:21;;;;;;;983.58;895.97;;;21.80;99.90;;;;;;5040432;28;20196;-80
2022/08/19 04:36:50;;;;;;;981.05;893.38;;;21.80;99.90;;;;;;5032169;28;20262;-80
2022/08/19 04:39:19;;;;;;;986.05;898.45;;;21.80;99.90;;;;;;5042885;28;20205;-80
2022/08/19 04:44:31;;;;;;;998.08;910.30;;;21.80;99.90;;;;;;5042233;28;20617;-81
2022/08/19 04:46:58;;;;;;;988.28;900.45;;;21.80;99.90;;;;;;5039887;28;20206;-80
2022/08/19 04:49:27;;;;;;;983.10;895.72;;;21.80;99.90;;;;;;5043533;28;20203;-80
2022/08/19 04:51:54;;;;;;;991.65;903.78;;;21.70;99.90;;;;;;5050309;28;20195;-80
2022/08/19 04:54:24;;;;;;;973.85;886.63;;;21.70;99.90;;;;;;5040582;28;20198;-80
2022/08/19 04:56:52;;;;;;;984.78;897.17;;;21.70;99.90;;;;;;5047652;28;20249;-80
2022/08/19 04:59:20;;;;;;;984.88;897.50;;;21.70;99.90;;;;;;5043647;28;20199;-80
2022/08/19 05:01:50;;;;;;;977.45;890.05;;;21.70;99.90;;;;;;5048680;28;20199;-80
2022/08/19 05:04:19;;;;;;;970.80;883.63;;;21.70;99.90;;;;;;5044962;28;20738;-80
2022/08/19 05:06:48;;;;;;;975.92;888.60;;;21.70;99.90;;;;;;5043657;28;20249;-80
2022/08/19 05:09:16;;;;;;;968.90;882.15;;;21.70;99.90;;;;;;5044120;28;20194;-80
2022/08/19 05:11:44;;;;;;;984.88;897.92;;;21.70;99.90;;;;;;5048888;28;20242;-80
2022/08/19 05:14:12;;;;;;;968.78;882.30;;;21.70;99.90;;;;;;5046081;28;20453;-80
2022/08/19 05:16:40;;;;;;;977.83;891.08;;;21.70;99.90;;;;;;5039259;28;20590;-80
2022/08/19 05:24:37;;;;;;;981.63;894.47;;;21.70;99.90;;;;;;5059250;28;20205;-80
2022/08/19 05:27:05;;;;;;;986.92;899.55;;;21.70;99.90;;;;;;5049004;28;20658;-80
2022/08/19 05:29:34;;;;;;;972.30;885.40;;;21.60;99.90;;;;;;5050922;28;20206;-80
2022/08/19 05:32:01;;;;;;;979.30;892.40;;;21.60;99.90;;;;;;5045471;28;20207;-80
2022/08/19 05:34:28;;;;;;;979.63;892.50;;;21.60;99.90;;;;;;5043348;28;20675;-80
2022/08/19 05:36:58;;;;;;;981.03;894.42;;;21.60;99.90;;;;;;5047315;28;20230;-80
2022/08/19 05:39:28;;;;;;;979.10;892.38;;;21.70;99.90;;;;;;5044870;28;20191;-80
2022/08/19 05:41:57;;;;;;;964.60;878.40;;;21.70;99.90;;;;;;5052362;28;20206;-80
2022/08/19 05:44:25;;;;;;;976.42;889.80;;;21.70;99.90;;;;;;5048404;28;20589;-80
2022/08/19 05:46:53;;;;;;;975.90;889.53;;;21.70;99.90;;;;;;5049956;28;20677;-80
2022/08/19 05:49:22;;;;;;;980.50;893.78;;;21.70;99.90;;;;;;5048853;28;20198;-80
2022/08/19 05:51:49;;;;;;;981.80;894.97;;;21.70;99.90;;;;;;5049758;28;20195;-80
2022/08/19 05:54:17;;;;;;;990.95;904.08;;;21.70;99.90;;;;;;5042382;28;20195;-81
2022/08/19 05:56:47;;;;;;;988.75;901.83;;;21.70;99.90;;;;;;5044654;28;20246;-80
2022/08/19 05:59:16;;;;;;;986.83;900.13;;;21.80;99.90;;;;;;5044423;28;20227;-80
2022/08/19 06:01:45;;;;;;;983.05;895.97;;;21.80;99.90;;;;;;5044390;28;20211;-80
2022/08/19 06:04:14;;;;;;;974.88;888.35;;;21.80;99.90;;;;;;5046889;28;20195;-80
2022/08/19 06:06:41;;;;;;;985.95;898.88;;;21.90;99.90;;;;;;5038681;28;20195;-81
2022/08/19 06:09:09;;;;;;;989.60;902.67;;;21.90;99.90;;;;;;5046028;28;20227;-81
2022/08/19 06:11:40;;;;;;;985.40;898.63;;;22.00;99.90;;;;;;5040516;28;20633;-81
2022/08/19 06:14:10;;;;;;;986.72;899.75;;;22.00;99.90;;;;;;5042928;28;20199;-80
2022/08/19 06:16:38;;;;;;;977.95;891.03;;;22.00;99.90;;;;;;5042649;28;20214;-80
2022/08/19 06:19:07;;;;;;;984.45;897.25;;;22.00;99.90;;;;;;5037345;28;20261;-79
2022/08/19 06:21:36;;;;;;;986.92;899.70;;;22.00;99.90;;;;;;5035490;28;20203;-80
2022/08/19 06:24:05;;;;;;;990.42;902.95;;;22.10;99.90;;;;;;5049204;28;20203;-82
2022/08/19 06:26:35;;;;;;;999.92;912.05;;;22.20;99.90;;;;;;5053195;28;20199;-81
2022/08/19 06:29:05;;;;;;;1000.47;912.70;;;22.20;99.90;;;;;;5046885;28;20204;-80
2022/08/19 06:31:33;;;;;;;990.90;903.38;;;22.30;99.90;;;;;;5043014;28;20191;-81
2022/08/19 06:34:02;;;;;;;1007.85;919.65;;;22.30;99.90;;;;;;5040482;28;20249;-79
2022/08/19 06:36:33;;;;;;;1004.85;916.97;;;22.30;99.90;;;;;;5041172;28;20698;-80
2022/08/19 06:39:01;;;;;;;991.10;903.78;;;22.30;99.90;;;;;;5050437;28;20200;-80
2022/08/19 06:41:29;;;;;;;1003.92;916.08;;;22.20;99.90;;;;;;5033982;28;20195;-80
2022/08/19 06:43:56;;;;;;;1001.33;913.33;;;22.20;99.90;;;;;;5036567;28;20279;-80
2022/08/19 06:46:26;;;;;;;998.45;910.60;;;22.20;99.90;;;;;;5040447;28;20206;-81
2022/08/19 06:48:54;;;;;;;994.42;906.65;;;22.20;99.90;;;;;;5052034;28;20677;-80
2022/08/19 06:51:21;;;;;;;981.55;894.47;;;22.10;99.90;;;;;;5048834;28;20203;-80
2022/08/19 06:53:49;;;;;;;991.97;904.42;;;22.10;99.90;;;;;;5039655;28;20566;-80
2022/08/19 06:56:17;;;;;;;991.03;903.35;;;22.10;99.90;;;;;;5043008;28;20212;-80
2022/08/19 06:58:44;;;;;;;987.28;899.78;;;22.20;99.90;;;;;;5035807;28;20211;-79
2022/08/19 07:01:11;;;;;;;1004.78;916.70;;;22.40;99.90;;;;;;5045063;28;20195;-80
2022/08/19 07:03:39;;;;;;;1003.90;915.92;;;22.50;99.90;;;;;;5052720;28;20195;-82
2022/08/19 07:06:09;;;;;;;1011.45;922.92;;;22.60;99.90;;;;;;5045399;28;20187;-80
2022/08/19 07:08:37;;;;;;;1022.58;933.75;;;22.70;99.90;;;;;;5043473;28;20196;-79
2022/08/19 07:11:07;;;;;;;1029.93;941.10;;;22.80;99.90;;;;;;5037815;28;20287;-79
2022/08/19 07:13:36;;;;;;;1022.10;933.33;;;23.00;99.90;;;;;;5042737;28;20253;-80
2022/08/19 07:16:05;;;;;;;1026.53;937.60;;;23.10;99.90;;;;;;5041995;28;20233;-80
2022/08/19 07:18:32;;;;;;;1038.35;949.47;;;23.20;99.90;;;;;;5053052;28;20203;-80
2022/08/19 07:21:05;;;;;;;1026.65;937.92;;;23.30;99.90;;;;;;5042412;28;20202;-79
2022/08/19 07:23:32;;;;;;;1042.20;952.92;;;23.40;99.90;;;;;;5042037;28;20532;-80
2022/08/19 07:25:59;;;;;;;1046.60;957.08;;;23.40;99.90;;;;;;5043535;28;20192;-80
2022/08/19 07:28:26;;;;;;;1045.78;956.30;;;23.50;99.90;;;;;;5041887;28;20201;-81
2022/08/19 07:30:53;;;;;;;1046.63;956.88;;;23.50;99.90;;;;;;5040885;28;20310;-80
2022/08/19 07:33:20;;;;;;;1033.10;944.30;;;23.60;99.90;;;;;;5046530;28;20191;-81
2022/08/19 07:35:46;;;;;;;1051.35;961.60;;;23.50;99.90;;;;;;5046999;28;20566;-81
2022/08/19 07:38:15;;;;;;;1054.88;965.03;;;23.50;99.90;;;;;;5052677;28;20210;-81
2022/08/19 07:40:43;;;;;;;1041.82;952.60;;;23.50;99.90;;;;;;5046543;28;20200;-80
2022/08/19 07:43:10;;;;;;;1045.78;956.33;;;23.40;99.90;;;;;;5045699;28;20206;-81
2022/08/19 07:45:37;;;;;;;1032.50;943.40;;;23.40;99.90;;;;;;5045697;28;20199;-81
2022/08/19 07:48:04;;;;;;;1033.22;944.17;;;23.40;99.90;;;;;;5052875;28;20550;-80
2022/08/19 07:50:31;;;;;;;1032.22;943.58;;;23.30;99.90;;;;;;5040090;28;20249;-81
2022/08/19 07:52:58;;;;;;;1036.68;947.47;;;23.40;99.90;;;;;;5052085;28;20187;-81
2022/08/19 07:55:27;;;;;;;1042.13;952.83;;;23.40;99.90;;;;;;5040774;28;20559;-81
2022/08/19 07:57:54;;;;;;;1041.38;952.15;;;23.40;99.90;;;;;;5040421;28;20223;-82
2022/08/19 08:00:21;;;;;;;1049.80;960.20;;;23.50;99.90;;;;;;5049612;28;20414;-81
2022/08/19 08:02:48;;;;;;;1055.15;965.42;;;23.60;99.90;;;;;;5046098;28;20202;-81
2022/08/19 08:11:04;;;;;;;1042.03;952.67;;;23.90;99.90;;;;;;5038475;28;20191;-80
2022/08/19 08:13:32;;;;;;;1054.70;964.83;;;24.00;99.90;;;;;;5044728;28;20447;-80
2022/08/19 08:15:59;;;;;;;1063.57;973.67;;;24.10;99.90;;;;;;5041734;28;20518;-80
2022/08/19 08:18:27;;;;;;;1070.07;979.77;;;24.20;99.90;;;;;;5037136;28;20472;-79
2022/08/19 08:20:53;;;;;;;1064.43;974.33;;;24.20;99.90;;;;;;5045614;28;20464;-78
2022/08/19 08:23:25;;;;;;;1070.40;980.13;;;24.20;99.90;;;;;;5038537;28;20461;-80
2022/08/19 08:25:54;;;;;;;1069.13;978.83;;;24.30;99.90;;;;;;5051854;28;20446;-78
2022/08/19 08:28:23;;;;;;;1070.10;979.73;;;24.30;99.90;;;;;;5041744;28;20967;-79
2022/08/19 08:30:51;;;;;;;1074.53;984.27;;;24.30;99.90;;;;;;5034464;28;20462;-79
2022/08/19 08:33:19;;;;;;;1086.53;995.07;;;24.40;99.90;;;;;;5050308;28;20462;-78
2022/08/19 08:35:46;;;;;;;1080.07;989.27;;;24.50;99.90;;;;;;5039496;28;20462;-80
2022/08/19 08:38:14;;;;;;;1083.63;992.10;;;24.50;99.90;;;;;;5038362;28;20482;-79
2022/08/19 08:40:48;;;;;;;1078.33;987.37;;;24.60;99.90;;;;;;5060561;28;20436;-79
2022/08/19 08:43:25;;;;;;;1083.90;992.83;;;24.60;99.90;;;;;;5030949;28;20864;-80
2022/08/19 08:45:57;;;;;;;1088.23;995.90;;;24.70;99.90;;;;;;5045391;28;20497;-80
2022/08/19 08:48:33;;;;;;;1094.30;998.87;;;24.70;99.90;;;;;;5037219;28;20461;-80
2022/08/19 08:51:04;;;;;;;1093.07;998.33;;;24.80;99.90;;;;;;5039258;28;20461;-79
2022/08/19 08:53:33;;;;;;;1091.17;997.53;;;24.80;99.90;;;;;;5049973;28;20462;-79
2022/08/19 08:56:01;;;;;;;1089.83;996.83;;;24.80;99.90;;;;;;5045144;28;21091;-80
2022/08/19 08:58:45;;;;;;;1087.73;995.43;;;24.90;99.90;;;;;;5040527;28;20838;-80
2022/08/19 09:01:13;;;;;;;1097.07;999.67;;;25.00;99.90;;;;;;5041659;28;20457;-81
2022/08/19 09:03:43;;;;;;;1102.67;999.90;;;25.00;99.90;;;;;;5049948;28;20800;-80
2022/08/19 09:06:16;;;;;;;1094.00;998.43;;;25.10;99.90;;;;;;5039595;28;20449;-80
2022/08/19 09:08:50;;;;;;;1114.37;999.90;;;25.10;99.90;;;;;;5044357;28;20457;-79
2022/08/19 09:11:24;;;;;;;1108.17;999.90;;;25.20;99.90;;;;;;5040072;28;21022;-80
2022/08/19 09:14:05;;;;;;;1114.83;999.90;;;25.30;99.90;;;;;;5044137;28;20453;-80
2022/08/19 09:16:32;;;;;;;1103.07;999.90;;;25.20;99.90;;;;;;5038614;28;20763;-81
2022/08/19 09:19:04;;;;;;;1103.07;999.90;;;25.20;99.90;;;;;;5044788;28;20461;-80
2022/08/19 09:21:30;;;;;;;1102.30;999.90;;;25.20;99.90;;;;;;5041792;28;20454;-81
2022/08/19 09:23:58;;;;;;;1092.70;998.03;;;25.20;99.90;;;;;;5050161;28;20437;-79
2022/08/19 09:26:25;;;;;;;1105.70;999.90;;;25.20;99.90;;;;;;5040100;28;20917;-80
2022/08/19 09:28:54;;;;;;;1101.00;999.90;;;25.20;99.90;;;;;;5040384;28;20466;-81
2022/08/19 09:31:24;;;;;;;1112.07;999.90;;;25.10;99.90;;;;;;5036395;28;20489;-79
2022/08/19 09:33:52;;;;;;;1091.30;997.57;;;25.10;99.90;;;;;;5032143;28;20473;-81
2022/08/19 09:36:22;;;;;;;1087.83;995.47;;;25.00;99.90;;;;;;5039725;28;20830;-81
2022/08/19 09:38:49;;;;;;;1095.33;999.10;;;24.90;99.90;;;;;;5047472;28;20481;-80
2022/08/19 09:41:18;;;;;;;1095.33;999.07;;;24.90;99.90;;;;;;5046046;28;20462;-80
2022/08/19 09:43:48;;;;;;;1091.67;997.93;;;24.90;99.90;;;;;;5042545;28;20464;-78
2022/08/19 09:46:17;;;;;;;1092.53;998.13;;;24.80;99.90;;;;;;5037054;28;20462;-80
2022/08/19 09:48:48;;;;;;;1082.57;991.80;;;24.80;99.90;;;;;;5044475;28;20462;-79
2022/08/19 09:51:17;;;;;;;1079.23;988.77;;;24.80;99.90;;;;;;5041259;28;20540;-80
2022/08/19 09:53:44;;;;;;;1089.00;996.63;;;24.90;99.90;;;;;;5041793;28;20550;-80
2022/08/19 09:56:13;;;;;;;1084.93;993.83;;;24.90;99.90;;;;;;5039917;28;20460;-80
2022/08/19 09:58:41;;;;;;;1095.47;999.10;;;24.90;99.90;;;;;;5042939;28;20485;-81
2022/08/19 10:01:08;;;;;;;1090.20;997.27;;;25.00;99.90;;;;;;5041224;28;20461;-81
2022/08/19 10:03:37;;;;;;;1097.50;999.87;;;25.00;99.90;;;;;;5052494;28;20429;-81
2022/08/19 10:06:06;;;;;;;1102.57;999.90;;;25.10;99.90;;;;;;5046928;28;20453;-81
2022/08/19 10:08:37;;;;;;;1096.87;999.57;;;25.10;99.90;;;;;;5053549;28;20472;-80
2022/08/19 10:11:05;;;;;;;1088.47;995.97;;;25.10;99.90;;;;;;5046500;28;20948;-79
2022/08/19 10:13:35;;;;;;;1091.87;997.83;;;25.10;99.90;;;;;;5043050;28;20458;-80
2022/08/19 10:16:07;;;;;;;1105.13;999.90;;;25.10;99.90;;;;;;5041431;28;20469;-81
2022/08/19 10:18:34;;;;;;;1098.40;999.90;;;25.20;99.90;;;;;;5051353;28;20487;-81
2022/08/19 10:21:09;;;;;;;1092.40;998.13;;;25.20;99.90;;;;;;5047103;28;20813;-80
2022/08/19 10:23:37;;;;;;;1095.50;999.03;;;25.10;99.90;;;;;;5052539;28;20461;-79
2022/08/19 10:26:06;;;;;;;1096.03;999.40;;;25.10;99.90;;;;;;5043435;28;20446;-81
2022/08/19 10:28:34;;;;;;;1090.03;997.10;;;25.10;99.90;;;;;;5045086;28;20461;-80
2022/08/19 10:31:06;;;;;;;1083.60;992.90;;;25.10;99.90;;;;;;5054865;28;20445;-79
2022/08/19 10:33:33;;;;;;;1085.60;994.33;;;25.10;99.90;;;;;;5053273;28;20445;-80
2022/08/19 10:36:01;;;;;;;1095.00;998.97;;;25.10;99.90;;;;;;5045958;28;20464;-80
2022/08/19 10:38:29;;;;;;;1090.03;997.07;;;25.10;99.90;;;;;;5051630;28;20477;-79
2022/08/19 10:40:56;;;;;;;1093.73;998.57;;;25.20;99.90;;;;;;5051992;28;20979;-80
2022/08/19 10:43:24;;;;;;;1100.07;999.90;;;25.20;99.90;;;;;;5045485;28;20904;-81
2022/08/19 10:45:54;;;;;;;1102.73;999.90;;;25.20;99.90;;;;;;5052801;28;20442;-80
2022/08/19 10:48:21;;;;;;;1103.57;999.90;;;25.30;99.90;;;;;;5043602;28;20491;-80
2022/08/19 10:53:33;;;;;;;1093.03;998.13;;;25.30;99.90;;;;;;5046957;28;20418;-80
2022/08/19 10:58:44;;;;;;;1092.80;998.17;;;25.30;99.90;;;;;;5045169;28;20971;-80
2022/08/19 11:01:11;;;;;;;1094.20;998.57;;;25.30;99.90;;;;;;5038722;28;20533;-80
2022/08/19 11:03:38;;;;;;;1108.27;999.90;;;25.30;99.90;;;;;;5050473;28;20955;-81
2022/08/19 11:06:07;;;;;;;1096.93;999.47;;;25.30;99.90;;;;;;5043729;28;20462;-79
2022/08/19 11:08:37;;;;;;;1092.60;998.10;;;25.30;99.90;;;;;;5054641;28;20408;-79
2022/08/19 11:11:05;;;;;;;1087.17;995.80;;;25.30;99.90;;;;;;5032835;28;20765;-80
2022/08/19 11:13:37;;;;;;;1093.43;998.33;;;25.30;99.90;;;;;;5033621;28;20462;-81
2022/08/19 11:16:07;;;;;;;1095.97;999.33;;;25.30;99.90;;;;;;5040179;28;20465;-80
2022/08/19 11:18:36;;;;;;;1076.93;986.90;;;25.30;99.90;;;;;;5047800;28;20988;-79
2022/08/19 11:21:08;;;;;;;1084.73;993.60;;;25.30;99.90;;;;;;5045036;28;20978;-80
2022/08/19 11:23:36;;;;;;;1082.37;992.10;;;25.20;99.90;;;;;;5052752;28;20532;-79
2022/08/19 11:26:03;;;;;;;1098.53;999.90;;;25.20;99.90;;;;;;5035917;28;20461;-79
2022/08/19 11:28:30;;;;;;;1086.60;994.97;;;25.20;99.90;;;;;;5053239;28;20438;-80
2022/08/19 11:30:57;;;;;;;1092.53;998.17;;;25.20;99.90;;;;;;5052042;28;20445;-80
2022/08/19 11:33:26;;;;;;;1086.00;995.27;;;25.20;99.90;;;;;;5052689;28;20436;-80
2022/08/19 11:35:53;;;;;;;1093.60;998.43;;;25.20;99.90;;;;;;5044604;28;20541;-80
2022/08/19 11:38:19;;;;;;;1095.10;999.80;;;25.20;99.90;;;;;;5052515;28;20508;-80
2022/08/19 11:40:55;;;;;;;1089.80;997.03;;;25.20;99.90;;;;;;5052139;28;20472;-80
2022/08/19 11:43:22;;;;;;;1094.53;998.73;;;25.30;99.90;;;;;;5048572;28;20960;-80
2022/08/19 11:45:49;;;;;;;1094.00;998.83;;;25.20;99.90;;;;;;5046154;28;20473;-80
2022/08/19 11:48:15;;;;;;;1087.70;996.47;;;25.30;99.90;;;;;;5052395;28;20932;-78
2022/08/19 11:50:43;;;;;;;1097.53;999.83;;;25.30;99.90;;;;;;5045101;28;20466;-79
2022/08/19 11:53:10;;;;;;;1099.67;999.90;;;25.30;99.90;;;;;;5052144;28;20449;-79
2022/08/19 11:55:39;;;;;;;1092.67;998.20;;;25.30;99.90;;;;;;5038169;28;20485;-79
2022/08/19 11:58:07;;;;;;;1090.43;997.40;;;25.30;99.90;;;;;;5058804;28;21005;-78
2022/08/19 12:00:36;;;;;;;1093.50;998.30;;;25.40;99.90;;;;;;5050486;28;20984;-79
2022/08/19 12:03:03;;;;;;;1094.43;998.70;;;25.40;99.90;;;;;;5032119;28;20851;-78
2022/08/19 12:05:30;;;;;;;1093.63;998.63;;;25.40;99.90;;;;;;5036577;28;20469;-79
2022/08/19 12:07:57;;;;;;;1087.57;995.53;;;25.30;99.90;;;;;;5050969;28;20449;-79
2022/08/19 12:10:24;;;;;;;1088.50;996.77;;;25.40;99.90;;;;;;5042289;28;20451;-79
2022/08/19 12:12:51;;;;;;;1084.40;993.53;;;25.30;99.90;;;;;;5037711;28;20821;-79
2022/08/19 12:15:19;;;;;;;1098.87;999.90;;;25.30;99.90;;;;;;5040333;28;20516;-78
2022/08/19 12:17:46;;;;;;;1095.80;999.33;;;25.30;99.90;;;;;;5052182;28;20988;-78
2022/08/19 12:20:15;;;;;;;1086.70;995.80;;;25.40;99.90;;;;;;5044196;28;20995;-79
2022/08/19 12:22:42;;;;;;;1087.40;995.40;;;25.30;99.90;;;;;;5051590;28;20450;-79
2022/08/19 12:25:10;;;;;;;1107.13;999.90;;;25.30;99.90;;;;;;5048832;28;20471;-79